Time;durP1;ratioP1;P1;durP2;ratioP2;P2;SDS_P1;SDS_P2;PMS_P1;PMS_P2;Temp;Humidity;BMP_temperature;BMP_pressure;BME280_temperature;BME280_humidity;BME280_pressure;Samples;Min_cycle;Max_cycle;Signal;HPM_P1;HPM_P2
2023/01/20 00:01:45;;;;;;;0.60;0.60;;;;;;;9.26;92.84;93923.47;5031049;28;20160;-74
2023/01/20 00:04:11;;;;;;;0.80;0.80;;;;;;;9.25;91.20;93932.38;5030158;28;20770;-74
2023/01/20 00:06:37;;;;;;;0.55;0.55;;;;;;;9.28;91.29;93932.72;5029383;28;20440;-74
2023/01/20 00:09:03;;;;;;;2.10;0.80;;;;;;;9.45;91.30;93902.13;5029854;28;20486;-74
2023/01/20 00:11:30;;;;;;;0.83;0.63;;;;;;;9.36;89.25;93893.00;5030688;28;20198;-74
2023/01/20 00:13:57;;;;;;;1.83;0.82;;;;;;;9.29;89.04;93894.94;5030524;28;20499;-74
2023/01/20 00:16:23;;;;;;;0.60;0.60;;;;;;;9.08;90.48;93777.34;5029826;28;20496;-74
2023/01/20 00:18:49;;;;;;;0.65;0.52;;;;;;;8.96;90.59;93737.19;5045078;28;20413;-74
2023/01/20 00:21:15;;;;;;;0.90;0.73;;;;;;;8.94;90.97;93691.97;5028518;28;20464;-74
2023/01/20 00:23:42;;;;;;;0.70;0.60;;;;;;;8.74;91.96;93704.63;5029747;28;20808;-74
2023/01/20 00:26:10;;;;;;;1.33;0.90;;;;;;;8.81;93.56;93719.28;5029863;28;20464;-74
2023/01/20 00:28:37;;;;;;;0.70;0.70;;;;;;;8.74;93.64;93721.19;5030012;28;20438;-74
2023/01/20 00:31:29;;;;;;;2.10;0.73;;;;;;;8.50;94.95;93730.84;5012909;28;20434;-74
2023/01/20 00:33:57;;;;;;;1.85;1.30;;;;;;;8.53;95.89;93740.91;5007770;28;20431;-74
2023/01/20 00:36:24;;;;;;;2.20;1.42;;;;;;;8.51;95.96;93742.94;5010185;28;20428;-74
2023/01/20 00:38:50;;;;;;;2.33;1.30;;;;;;;8.77;97.07;93736.47;5010292;28;21037;-74
2023/01/20 00:41:16;;;;;;;1.47;0.97;;;;;;;8.88;96.60;93721.78;5009996;28;20411;-74
2023/01/20 00:43:42;;;;;;;1.70;1.33;;;;;;;9.06;95.18;93704.09;5010450;28;20287;-74
2023/01/20 00:46:07;;;;;;;1.95;1.20;;;;;;;8.95;93.01;93699.63;5009906;28;20873;-74
2023/01/20 00:48:34;;;;;;;2.25;1.38;;;;;;;8.97;93.58;93710.72;5010314;28;20492;-74
2023/01/20 00:51:00;;;;;;;2.72;1.20;;;;;;;9.00;92.04;93698.94;5013765;28;20481;-74
2023/01/20 00:53:25;;;;;;;1.70;1.23;;;;;;;9.09;92.66;93715.94;5013864;28;20410;-74
2023/01/20 00:55:51;;;;;;;2.87;1.20;;;;;;;9.23;93.24;93708.63;5014365;28;20181;-74
2023/01/20 00:58:16;;;;;;;1.52;1.38;;;;;;;9.31;92.39;93700.41;5013185;28;20446;-74
2023/01/20 01:00:42;;;;;;;2.53;1.30;;;;;;;9.43;92.09;93709.03;5013781;28;20409;-74
2023/01/20 01:03:09;;;;;;;2.53;1.30;;;;;;;9.42;91.23;93710.09;5013579;28;20971;-74
2023/01/20 01:05:34;;;;;;;1.15;1.00;;;;;;;9.39;89.64;93697.41;5014278;28;20728;-74
2023/01/20 01:08:00;;;;;;;1.00;0.80;;;;;;;9.45;86.57;93694.66;5013237;28;20414;-74
2023/01/20 01:10:25;;;;;;;1.23;0.70;;;;;;;9.54;84.81;93713.47;5012958;28;20411;-74
2023/01/20 01:12:51;;;;;;;1.65;0.90;;;;;;;9.49;83.55;93699.44;5013095;28;20410;-74
2023/01/20 01:15:16;;;;;;;1.42;0.60;;;;;;;9.56;83.31;93703.53;5013140;28;20779;-74
2023/01/20 01:17:45;;;;;;;0.87;0.67;;;;;;;9.60;84.09;93707.28;5013515;28;20417;-73
2023/01/20 01:20:13;;;;;;;3.60;0.85;;;;;;;9.51;84.50;93694.75;5012987;28;20418;-74
2023/01/20 01:22:39;;;;;;;2.65;0.88;;;;;;;9.64;82.94;93707.63;5011936;28;20797;-74
2023/01/20 01:25:05;;;;;;;0.60;0.60;;;;;;;9.73;82.61;93699.13;5012774;28;20423;-74
2023/01/20 01:27:30;;;;;;;1.35;1.00;;;;;;;9.75;82.03;93709.41;5012709;28;20437;-74
2023/01/20 01:29:56;;;;;;;1.37;0.80;;;;;;;9.87;79.61;93702.28;5013346;28;20909;-74
2023/01/20 01:32:22;;;;;;;0.60;0.60;;;;;;;9.88;79.70;93697.81;5011581;28;20793;-74
2023/01/20 01:34:48;;;;;;;0.85;0.75;;;;;;;9.75;81.64;93696.28;5013266;28;20436;-74
2023/01/20 01:37:13;;;;;;;0.83;0.70;;;;;;;9.66;82.22;93693.22;5012739;28;20913;-74
2023/01/20 01:39:39;;;;;;;1.23;0.90;;;;;;;9.68;83.45;93712.19;5012644;28;20410;-74
2023/01/20 01:42:12;;;;;;;1.83;0.90;;;;;;;9.68;82.91;93687.75;5012427;28;20918;-74
2023/01/20 01:44:58;;;;;;;0.70;0.70;;;;;;;9.81;82.91;93685.63;5012554;28;20617;-73
2023/01/20 01:47:23;;;;;;;1.48;0.90;;;;;;;9.85;82.70;93691.22;5012386;28;20434;-74
2023/01/20 01:49:50;;;;;;;0.60;0.60;;;;;;;9.90;83.31;93712.31;5012730;28;20422;-74
2023/01/20 01:52:17;;;;;;;1.48;0.70;;;;;;;9.92;82.75;93710.28;5013192;28;20523;-74
2023/01/20 01:54:44;;;;;;;0.60;0.60;;;;;;;9.82;83.36;93695.09;5013048;28;20470;-74
2023/01/20 01:57:11;;;;;;;0.80;0.65;;;;;;;9.85;83.55;93712.25;5013243;28;20442;-74
2023/01/20 01:59:37;;;;;;;1.15;1.08;;;;;;;9.94;83.79;93720.56;5011616;28;20426;-74
2023/01/20 02:02:03;;;;;;;1.35;0.95;;;;;;;9.77;83.53;93702.09;5012540;28;21098;-74
2023/01/20 02:04:30;;;;;;;0.57;0.50;;;;;;;9.72;84.39;93704.63;5011437;28;20402;-74
2023/01/20 02:07:01;;;;;;;1.70;0.80;;;;;;;9.63;84.56;93708.66;5009989;28;20557;-74
2023/01/20 02:09:29;;;;;;;0.70;0.68;;;;;;;9.51;84.27;93695.56;5012176;28;20418;-74
2023/01/20 02:11:59;;;;;;;1.52;1.10;;;;;;;9.35;85.46;93688.38;5011745;28;20410;-74
2023/01/20 02:14:32;;;;;;;1.05;0.68;;;;;;;9.26;85.69;93681.91;5011634;28;20465;-74
2023/01/20 02:17:42;;;;;;;1.97;0.80;;;;;;;9.31;85.40;93682.00;5011773;28;20411;-74
2023/01/20 02:20:58;;;;;;;0.98;0.68;;;;;;;9.15;85.40;93675.66;5005030;28;20423;-73
2023/01/20 02:23:46;;;;;;;0.70;0.70;;;;;;;8.89;86.92;93670.88;4995013;28;20423;-74
2023/01/20 02:26:35;;;;;;;1.38;0.73;;;;;;;9.02;86.70;93683.75;5011574;28;20426;-74
2023/01/20 02:29:13;;;;;;;1.40;0.70;;;;;;;8.96;86.99;93684.69;5011560;28;20489;-74
2023/01/20 02:32:00;;;;;;;0.60;0.60;;;;;;;8.84;87.83;93668.16;5012597;28;20501;-74
2023/01/20 02:34:35;;;;;;;0.80;0.80;;;;;;;8.61;89.19;93659.25;5011474;28;20477;-74
2023/01/20 02:37:20;;;;;;;0.77;0.63;;;;;;;8.74;89.50;93665.28;5011744;28;20418;-74
2023/01/20 02:39:46;;;;;;;0.75;0.73;;;;;;;8.63;88.76;93662.47;5011338;28;20421;-74
2023/01/20 02:42:30;;;;;;;0.80;0.80;;;;;;;8.63;89.56;93659.84;5011399;28;20916;-74
2023/01/20 02:45:10;;;;;;;0.80;0.80;;;;;;;8.59;89.53;93650.00;5011387;28;20398;-74
2023/01/20 02:47:53;;;;;;;1.70;1.05;;;;;;;8.63;89.39;93645.94;5011294;28;20511;-74
2023/01/20 02:50:31;;;;;;;1.35;1.00;;;;;;;8.68;90.15;93638.97;5011234;28;20410;-74
2023/01/20 02:52:59;;;;;;;1.40;0.80;;;;;;;8.83;90.25;93645.56;5011898;28;20490;-74
2023/01/20 02:55:32;;;;;;;0.60;0.60;;;;;;;8.99;89.02;93639.63;5011490;28;20875;-74
2023/01/20 02:58:06;;;;;;;0.90;0.90;;;;;;;9.14;89.13;93626.81;5012197;28;20239;-74
2023/01/20 03:00:42;;;;;;;0.73;0.70;;;;;;;9.18;88.11;93617.41;5011208;28;20172;-74
2023/01/20 03:03:14;;;;;;;1.63;0.80;;;;;;;9.05;88.24;93615.88;5003362;28;20797;-74
2023/01/20 03:05:48;;;;;;;0.90;0.80;;;;;;;9.03;88.09;93617.91;5011107;28;20949;-74
2023/01/20 03:08:15;;;;;;;2.00;1.40;;;;;;;8.82;89.06;93628.25;5024963;28;20409;-74
2023/01/20 03:10:41;;;;;;;3.80;0.93;;;;;;;8.90;89.24;93641.00;5018567;28;20183;-74
2023/01/20 03:13:18;;;;;;;1.05;0.95;;;;;;;8.96;89.05;93630.38;5023899;28;20953;-74
2023/01/20 03:16:00;;;;;;;1.17;1.00;;;;;;;8.95;89.02;93617.47;5010942;28;20422;-74
2023/01/20 03:18:28;;;;;;;1.40;1.13;;;;;;;8.94;88.84;93624.56;5010502;28;20450;-74
2023/01/20 03:20:56;;;;;;;1.10;1.00;;;;;;;8.94;89.98;93626.38;5010627;28;20414;-74
2023/01/20 03:23:21;;;;;;;1.63;0.73;;;;;;;9.06;89.80;93627.16;5022075;28;20191;-74
2023/01/20 03:25:49;;;;;;;2.10;1.00;;;;;;;9.11;88.65;93631.72;5030181;28;20421;-74
2023/01/20 03:28:14;;;;;;;2.55;1.13;;;;;;;9.06;88.81;93625.34;5031025;28;20547;-74
2023/01/20 03:30:40;;;;;;;1.67;1.03;;;;;;;9.15;88.98;93625.78;5030233;28;20693;-74
2023/01/20 03:33:06;;;;;;;0.90;0.90;;;;;;;9.25;88.62;93633.88;5031489;28;20182;-74
2023/01/20 03:35:33;;;;;;;1.98;1.13;;;;;;;9.25;88.39;93633.88;5028850;28;20425;-74
2023/01/20 03:37:58;;;;;;;1.80;1.40;;;;;;;9.33;88.34;93630.88;5028539;28;20175;-74
2023/01/20 03:40:30;;;;;;;1.80;1.27;;;;;;;9.21;88.11;93627.47;5010740;28;20865;-74
2023/01/20 03:43:14;;;;;;;3.03;1.58;;;;;;;9.01;89.13;93635.72;5010557;28;20918;-74
2023/01/20 03:45:56;;;;;;;1.55;1.30;;;;;;;8.92;90.12;93644.19;5010797;28;20437;-74
2023/01/20 03:49:14;;;;;;;2.05;1.30;;;;;;;8.98;90.73;93640.66;5004004;28;20489;-74
2023/01/20 03:51:42;;;;;;;1.40;1.10;;;;;;;8.89;91.34;93624.47;5006877;28;20419;-74
2023/01/20 03:54:15;;;;;;;2.35;1.10;;;;;;;8.82;91.72;93612.50;5009701;28;20450;-74
2023/01/20 03:56:49;;;;;;;1.25;0.90;;;;;;;8.84;92.29;93599.91;5009948;28;20951;-74
2023/01/20 03:59:19;;;;;;;1.27;0.90;;;;;;;8.70;93.20;93605.44;5010111;28;20523;-74
2023/01/20 04:01:45;;;;;;;3.53;1.48;;;;;;;8.65;94.02;93599.25;5010056;28;20414;-74
2023/01/20 04:04:16;;;;;;;0.83;0.83;;;;;;;8.75;94.30;93588.19;5011053;28;20180;-74
2023/01/20 04:06:44;;;;;;;0.70;0.70;;;;;;;8.74;94.83;93574.28;5009815;28;20200;-74
2023/01/20 04:09:16;;;;;;;3.07;1.07;;;;;;;8.97;93.53;93583.94;5030355;28;20678;-74
2023/01/20 04:11:41;;;;;;;2.30;1.10;;;;;;;8.90;94.12;93572.78;5029288;28;20414;-74
2023/01/20 04:14:09;;;;;;;2.50;1.10;;;;;;;8.92;94.73;93584.63;5029468;28;20420;-74
2023/01/20 04:16:35;;;;;;;1.47;1.00;;;;;;;9.00;93.98;93580.84;5030617;28;20176;-74
2023/01/20 04:19:01;;;;;;;2.53;1.10;;;;;;;9.21;93.90;93574.16;5014282;28;20425;-74
2023/01/20 04:21:35;;;;;;;1.83;1.00;;;;;;;9.25;93.02;93555.09;5012421;28;20945;-74
2023/01/20 04:24:23;;;;;;;2.22;1.52;;;;;;;9.36;92.15;93561.31;5008920;28;20450;-73
2023/01/20 04:26:48;;;;;;;2.10;1.30;;;;;;;9.42;91.73;93561.19;5009965;28;20510;-73
2023/01/20 04:29:14;;;;;;;1.87;1.30;;;;;;;9.36;92.15;93543.72;5009487;28;20505;-73
2023/01/20 04:31:39;;;;;;;1.30;1.00;;;;;;;9.36;92.50;93559.47;5011038;28;20172;-74
2023/01/20 04:34:05;;;;;;;1.00;0.90;;;;;;;9.49;92.27;93550.53;5026501;28;20929;-75
2023/01/20 04:36:31;;;;;;;2.05;1.13;;;;;;;9.49;92.48;93549.72;5015526;28;20417;-75
2023/01/20 04:38:56;;;;;;;2.45;1.02;;;;;;;9.41;93.17;93556.97;5014211;28;20928;-75
2023/01/20 04:41:21;;;;;;;2.20;1.43;;;;;;;9.35;93.10;93547.38;5016600;28;20430;-74
2023/01/20 04:43:47;;;;;;;2.50;1.40;;;;;;;9.35;93.02;93563.13;5014931;28;20430;-74
2023/01/20 04:46:14;;;;;;;1.63;1.20;;;;;;;9.32;93.25;93565.44;5015478;28;20466;-74
2023/01/20 04:48:40;;;;;;;1.60;1.20;;;;;;;9.21;93.95;93555.78;5025118;28;20191;-74
2023/01/20 04:51:06;;;;;;;1.47;1.37;;;;;;;9.26;94.21;93571.63;5026111;28;20179;-74
2023/01/20 04:53:32;;;;;;;2.93;1.93;;;;;;;9.36;94.54;93587.56;5030267;28;20207;-74
2023/01/20 04:55:57;;;;;;;3.63;1.90;;;;;;;9.32;94.66;93589.88;5025973;28;20210;-74
2023/01/20 04:58:23;;;;;;;3.30;2.20;;;;;;;9.39;94.83;93576.59;5028911;28;20223;-74
2023/01/20 05:00:48;;;;;;;9.20;6.60;;;;;;;9.39;94.90;93587.91;5024331;28;20742;-74
2023/01/20 05:03:13;;;;;;;5.57;4.83;;;;;;;9.41;94.64;93608.69;5027569;28;20179;-74
2023/01/20 05:05:39;;;;;;;5.47;4.23;;;;;;;9.44;95.12;93624.75;5012788;28;20664;-74
2023/01/20 05:08:05;;;;;;;7.20;3.77;;;;;;;9.43;95.22;93620.53;5011179;28;20183;-74
2023/01/20 05:10:31;;;;;;;3.20;2.90;;;;;;;9.44;95.33;93627.38;5010457;28;20173;-74
2023/01/20 05:12:58;;;;;;;5.97;2.50;;;;;;;9.40;95.32;93615.78;5028827;28;20563;-74
2023/01/20 05:15:24;;;;;;;5.17;2.43;;;;;;;9.46;95.72;93612.19;5019187;28;20172;-74
2023/01/20 05:17:49;;;;;;;5.67;3.47;;;;;;;9.48;95.70;93605.91;5013063;28;20182;-74
2023/01/20 05:20:15;;;;;;;9.33;5.40;;;;;;;9.47;95.63;93589.34;5016637;28;20547;-74
2023/01/20 05:22:40;;;;;;;16.05;8.57;;;;;;;9.37;95.15;93589.97;5016512;28;20839;-74
2023/01/20 05:25:06;;;;;;;16.37;7.87;;;;;;;9.38;95.60;93604.69;5014326;28;20183;-73
2023/01/20 05:27:35;;;;;;;18.20;7.63;;;;;;;9.35;96.08;93612.22;5020337;28;20201;-74
2023/01/20 05:30:02;;;;;;;19.03;7.47;;;;;;;9.39;96.50;93619.41;5009319;28;20223;-74
2023/01/20 05:32:28;;;;;;;14.40;8.53;;;;;;;9.42;96.68;93623.41;5010381;28;20208;-74
2023/01/20 05:34:53;;;;;;;19.43;7.60;;;;;;;9.43;96.51;93630.25;5011311;28;20255;-73
2023/01/20 05:37:18;;;;;;;13.90;7.80;;;;;;;9.38;96.39;93628.31;5014311;28;20179;-75
2023/01/20 05:39:44;;;;;;;11.50;7.17;;;;;;;9.40;96.46;93628.91;5013506;28;20183;-75
2023/01/20 05:42:10;;;;;;;12.63;8.03;;;;;;;9.39;96.36;93623.88;5023169;28;20186;-74
2023/01/20 05:44:35;;;;;;;11.97;8.30;;;;;;;9.36;96.43;93605.94;5033595;28;20179;-75
2023/01/20 05:47:01;;;;;;;14.03;8.10;;;;;;;9.41;96.18;93609.50;5033351;28;20207;-74
2023/01/20 05:49:27;;;;;;;20.47;10.00;;;;;;;9.45;96.27;93588.78;5033428;28;20179;-74
2023/01/20 05:51:52;;;;;;;9.77;6.00;;;;;;;9.46;95.60;93585.94;5014708;28;20176;-74
2023/01/20 05:54:18;;;;;;;10.20;5.20;;;;;;;9.44;95.63;93598.50;5013213;28;20433;-74
2023/01/20 05:56:43;;;;;;;10.97;5.43;;;;;;;9.38;95.99;93572.38;5012587;28;20602;-74
2023/01/20 05:59:09;;;;;;;6.43;3.40;;;;;;;9.38;94.97;93554.81;5012782;28;20447;-74
2023/01/20 06:01:34;;;;;;;5.30;3.30;;;;;;;9.27;95.02;93605.53;5013242;28;20207;-74
2023/01/20 06:04:00;;;;;;;8.67;5.20;;;;;;;8.95;96.20;93606.97;5012758;28;20450;-74
2023/01/20 06:06:26;;;;;;;5.27;3.40;;;;;;;8.97;97.38;93587.38;5013480;28;20246;-74
2023/01/20 06:08:52;;;;;;;6.27;3.27;;;;;;;8.96;97.33;93603.34;5013181;28;20453;-74
2023/01/20 06:11:18;;;;;;;6.25;4.20;;;;;;;8.99;97.61;93603.66;5011960;28;20921;-75
2023/01/20 06:13:45;;;;;;;4.23;3.03;;;;;;;9.08;97.96;93586.50;5013382;28;20239;-75
2023/01/20 06:16:11;;;;;;;4.85;3.08;;;;;;;9.23;96.84;93590.47;5027054;28;20419;-75
2023/01/20 06:18:36;;;;;;;6.80;3.67;;;;;;;9.15;96.68;93607.41;5031870;28;20413;-75
2023/01/20 06:21:02;;;;;;;5.95;4.22;;;;;;;9.16;97.22;93619.50;5031623;28;20474;-74
2023/01/20 06:23:27;;;;;;;9.00;4.00;;;;;;;9.15;97.50;93607.41;5032831;28;20187;-75
2023/01/20 06:26:10;;;;;;;7.20;3.80;;;;;;;9.18;97.43;93603.50;5032823;28;20280;-75
2023/01/20 06:28:35;;;;;;;6.40;3.83;;;;;;;9.19;97.68;93610.34;5032872;28;20168;-75
2023/01/20 06:31:06;;;;;;;7.67;3.47;;;;;;;9.19;98.21;93603.28;5028083;28;20722;-75
2023/01/20 06:33:31;;;;;;;6.10;3.13;;;;;;;9.17;98.74;93591.44;5012718;28;20177;-75
2023/01/20 06:35:57;;;;;;;8.77;4.63;;;;;;;9.20;98.95;93593.56;5012902;28;20183;-75
2023/01/20 06:38:24;;;;;;;13.17;7.43;;;;;;;9.25;98.62;93606.81;5032727;28;20174;-75
2023/01/20 06:40:50;;;;;;;11.07;6.38;;;;;;;9.17;98.76;93609.81;5031920;28;20417;-75
2023/01/20 06:43:16;;;;;;;11.90;6.33;;;;;;;9.21;99.23;93601.22;5032729;28;20234;-75
2023/01/20 06:45:41;;;;;;;23.40;8.77;;;;;;;9.29;98.89;93605.28;5012896;28;20232;-75
2023/01/20 06:48:06;;;;;;;5.03;3.15;;;;;;;9.17;97.48;93589.56;5011695;28;20894;-75
2023/01/20 06:50:32;;;;;;;3.93;2.77;;;;;;;9.13;98.08;93572.72;5011346;28;20526;-75
2023/01/20 06:52:57;;;;;;;4.43;2.88;;;;;;;9.00;98.61;93591.34;5019620;28;20491;-75
2023/01/20 06:55:23;;;;;;;4.47;3.10;;;;;;;8.92;99.24;93587.25;5011615;28;20406;-76
2023/01/20 06:57:48;;;;;;;2.83;2.17;;;;;;;9.06;99.66;93591.22;5012480;28;20311;-75
2023/01/20 07:00:14;;;;;;;4.37;2.47;;;;;;;9.19;98.73;93587.50;5012269;28;21114;-75
2023/01/20 07:02:39;;;;;;;2.40;2.13;;;;;;;9.27;97.93;93595.03;5020591;28;20237;-75
2023/01/20 07:05:07;;;;;;;4.77;2.60;;;;;;;9.36;98.15;93585.75;5021304;28;20410;-75
2023/01/20 07:07:33;;;;;;;2.22;1.80;;;;;;;9.22;95.84;93587.06;5010938;28;20536;-75
2023/01/20 07:10:00;;;;;;;2.42;1.98;;;;;;;9.08;96.15;93577.88;5011708;28;20422;-74
2023/01/20 07:12:25;;;;;;;4.13;2.33;;;;;;;9.17;97.28;93583.56;5011893;28;20417;-74
2023/01/20 07:14:50;;;;;;;3.80;2.40;;;;;;;9.19;97.11;93582.25;5011689;28;20461;-74
2023/01/20 07:17:16;;;;;;;5.00;1.80;;;;;;;9.24;95.92;93592.09;5025087;28;20495;-74
2023/01/20 07:19:41;;;;;;;3.60;2.17;;;;;;;9.04;96.75;93593.28;5030407;28;20780;-73
2023/01/20 07:22:06;;;;;;;3.08;2.00;;;;;;;9.01;96.47;93583.22;5030615;28;20413;-73
2023/01/20 07:24:32;;;;;;;3.63;2.03;;;;;;;9.02;96.60;93584.81;5015305;28;20414;-74
2023/01/20 07:26:57;;;;;;;4.33;2.50;;;;;;;9.02;95.88;93578.78;5010242;28;20513;-74
2023/01/20 07:29:22;;;;;;;4.73;2.30;;;;;;;8.86;97.01;93582.94;5010677;28;20840;-74
2023/01/20 07:31:48;;;;;;;3.17;2.20;;;;;;;8.82;97.70;93583.63;5010802;28;20414;-74
2023/01/20 07:34:13;;;;;;;4.27;2.30;;;;;;;8.82;97.37;93575.75;5011136;28;20421;-74
2023/01/20 07:36:39;;;;;;;3.92;2.40;;;;;;;8.91;97.67;93585.66;5010585;28;20476;-74
2023/01/20 07:39:04;;;;;;;3.08;2.45;;;;;;;9.02;96.70;93569.06;5010021;28;20411;-74
2023/01/20 07:41:29;;;;;;;4.10;2.17;;;;;;;9.11;95.64;93563.47;5010685;28;20414;-74
2023/01/20 07:43:55;;;;;;;2.30;1.90;;;;;;;9.07;94.93;93563.94;5010553;28;20440;-74
2023/01/20 07:46:20;;;;;;;3.83;2.20;;;;;;;9.10;93.50;93562.66;5010006;28;20469;-74
2023/01/20 07:48:46;;;;;;;4.73;2.43;;;;;;;9.23;94.02;93557.16;5015989;28;20246;-74
2023/01/20 07:51:13;;;;;;;4.15;3.20;;;;;;;9.19;93.87;93561.25;5029985;28;20907;-74
2023/01/20 07:53:45;;;;;;;7.40;4.85;;;;;;;9.08;94.75;93564.75;5024534;28;20840;-74
2023/01/20 07:56:14;;;;;;;5.00;3.45;;;;;;;9.01;95.09;93553.56;5010537;28;20834;-74
2023/01/20 07:58:40;;;;;;;5.20;2.83;;;;;;;9.11;94.81;93542.47;5001683;28;20492;-74
2023/01/20 08:01:08;;;;;;;6.13;2.70;;;;;;;9.27;95.02;93549.59;5010386;28;20418;-74
2023/01/20 08:03:33;;;;;;;4.15;2.60;;;;;;;9.27;94.80;93557.47;5017782;28;20797;-74
2023/01/20 08:06:02;;;;;;;6.57;3.00;;;;;;;9.41;94.86;93559.59;5010025;28;20472;-74
2023/01/20 08:08:28;;;;;;;3.85;2.63;;;;;;;9.33;93.93;93549.47;5009829;28;20970;-74
2023/01/20 08:10:53;;;;;;;5.37;2.80;;;;;;;9.31;94.31;93535.78;5009897;28;20402;-74
2023/01/20 08:13:19;;;;;;;4.10;2.90;;;;;;;9.38;93.65;93517.25;5009776;28;20772;-74
2023/01/20 08:15:44;;;;;;;6.30;2.97;;;;;;;9.52;92.31;93521.16;5021460;28;20421;-75
2023/01/20 08:18:11;;;;;;;3.30;2.30;;;;;;;9.41;91.85;93530.69;5030285;28;20831;-74
2023/01/20 08:20:40;;;;;;;2.77;2.03;;;;;;;9.02;92.38;93536.78;5012981;28;20422;-75
2023/01/20 08:23:05;;;;;;;3.83;2.40;;;;;;;8.88;93.28;93538.09;5011034;28;20446;-74
2023/01/20 08:25:31;;;;;;;3.83;2.63;;;;;;;8.83;94.48;93551.91;5009489;28;20913;-75
2023/01/20 08:27:56;;;;;;;4.33;2.33;;;;;;;8.86;93.98;93555.88;5020487;28;20650;-75
2023/01/20 08:30:22;;;;;;;4.73;2.20;;;;;;;8.92;94.03;93552.34;5012438;28;20260;-76
2023/01/20 08:32:47;;;;;;;2.87;2.13;;;;;;;8.91;92.51;93548.91;5011221;28;20655;-74
2023/01/20 08:35:13;;;;;;;4.00;2.40;;;;;;;8.77;93.48;93536.28;5009404;28;20807;-74
2023/01/20 08:37:38;;;;;;;4.03;2.60;;;;;;;8.73;93.80;93535.19;5008241;28;20415;-74
2023/01/20 08:40:09;;;;;;;3.60;2.27;;;;;;;8.76;94.53;93517.13;5010052;28;20172;-74
2023/01/20 08:42:37;;;;;;;3.53;2.33;;;;;;;8.67;95.12;93497.53;5009702;28;20176;-75
2023/01/20 08:45:05;;;;;;;4.73;2.70;;;;;;;8.80;96.05;93491.25;5010788;28;20604;-75
2023/01/20 08:47:34;;;;;;;4.50;2.73;;;;;;;9.03;95.52;93484.06;5021281;28;20253;-74
2023/01/20 08:49:59;;;;;;;4.77;3.13;;;;;;;9.20;94.30;93486.72;5009555;28;20208;-74
2023/01/20 08:52:25;;;;;;;9.87;3.27;;;;;;;9.32;93.93;93481.44;5010644;28;20257;-74
2023/01/20 08:54:52;;;;;;;5.80;3.17;;;;;;;9.37;93.38;93466.53;5009844;28;20213;-72
2023/01/20 08:57:17;;;;;;;5.53;3.60;;;;;;;9.39;93.65;93469.72;5010374;28;20247;-73
2023/01/20 08:59:43;;;;;;;6.70;3.63;;;;;;;9.42;93.49;93461.41;5010524;28;20655;-73
2023/01/20 09:02:09;;;;;;;5.83;3.20;;;;;;;9.48;93.18;93470.13;5010474;28;20179;-73
2023/01/20 09:04:36;;;;;;;6.73;3.37;;;;;;;9.53;92.81;93487.78;5010062;28;20243;-74
2023/01/20 09:07:03;;;;;;;6.13;3.60;;;;;;;9.58;93.02;93478.19;5010333;28;20270;-74
2023/01/20 09:09:28;;;;;;;6.77;3.77;;;;;;;9.65;93.37;93476.19;5022954;28;20175;-75
2023/01/20 09:11:54;;;;;;;7.93;3.50;;;;;;;9.70;92.40;93457.88;5020623;28;20176;-74
2023/01/20 09:14:21;;;;;;;6.10;3.60;;;;;;;9.89;92.83;93474.19;5014582;28;20184;-74
2023/01/20 09:16:47;;;;;;;5.87;3.57;;;;;;;10.06;92.63;93482.06;5013257;28;20680;-74
2023/01/20 09:19:13;;;;;;;7.30;3.77;;;;;;;10.13;90.73;93490.56;5030160;28;20179;-74
2023/01/20 09:21:38;;;;;;;8.23;4.17;;;;;;;10.23;91.62;93474.16;5026010;28;20195;-75
2023/01/20 09:24:05;;;;;;;12.53;3.93;;;;;;;10.27;91.06;93483.97;5034393;28;20180;-75
2023/01/20 09:26:37;;;;;;;8.77;3.77;;;;;;;10.38;91.29;93477.78;5016876;28;20200;-75
2023/01/20 09:29:07;;;;;;;3.13;1.73;;;;;;;10.44;86.54;93470.78;5027154;28;20172;-74
2023/01/20 09:31:37;;;;;;;4.13;1.67;;;;;;;10.20;86.76;93476.22;5033975;28;20673;-73
2023/01/20 09:34:03;;;;;;;3.00;1.93;;;;;;;10.10;87.65;93464.78;5029797;28;20180;-74
2023/01/20 09:36:28;;;;;;;2.67;1.70;;;;;;;9.91;86.01;93468.69;5021433;28;20160;-74
2023/01/20 09:45:03;;;;;;;4.23;1.77;;;;;;;9.94;87.91;93471.66;5022582;28;20277;-74
2023/01/20 09:47:31;;;;;;;7.20;1.50;;;;;;;10.14;87.95;93479.00;4961170;28;20228;-75
2023/01/20 09:53:26;;;;;;;0.97;0.97;;;;;;;10.21;86.68;93469.13;5012806;28;20202;-75
2023/01/20 09:55:55;;;;;;;1.40;1.10;;;;;;;10.33;85.95;93476.94;5013904;28;20662;-74
2023/01/20 09:58:32;;;;;;;2.17;1.20;;;;;;;10.39;86.04;93460.97;5013528;28;20259;-74
2023/01/20 10:01:23;;;;;;;1.53;1.13;;;;;;;10.56;86.63;93453.81;5013527;28;20183;-74
2023/01/20 10:04:12;;;;;;;3.20;1.50;;;;;;;10.77;85.91;93452.22;5013668;28;20200;-73
2023/01/20 10:06:42;;;;;;;2.13;1.40;;;;;;;11.01;86.67;93454.56;5018548;28;20204;-74
2023/01/20 10:09:25;;;;;;;1.73;1.60;;;;;;;11.25;86.47;93454.03;5033087;28;20187;-73
2023/01/20 10:11:55;;;;;;;3.93;1.43;;;;;;;11.43;85.44;93452.88;5033045;28;20246;-74
2023/01/20 10:14:34;;;;;;;1.60;1.50;;;;;;;11.55;85.81;93442.97;5032467;28;20207;-74
2023/01/20 10:17:05;;;;;;;2.83;1.57;;;;;;;11.69;85.57;93449.41;5033238;28;20221;-73
2023/01/20 10:19:43;;;;;;;3.90;1.70;;;;;;;11.76;84.84;93416.81;5022450;28;20214;-74
2023/01/20 10:22:11;;;;;;;4.17;2.60;;;;;;;11.86;83.94;93409.75;5012588;28;20173;-75
2023/01/20 10:24:47;;;;;;;1.93;1.63;;;;;;;11.91;83.95;93406.38;5013292;28;20254;-75
2023/01/20 10:27:13;;;;;;;1.97;1.60;;;;;;;11.94;83.63;93416.38;5013205;28;20682;-74
2023/01/20 10:29:46;;;;;;;8.27;3.20;;;;;;;11.94;83.99;93416.38;5013202;28;20185;-73
2023/01/20 10:32:31;;;;;;;4.40;3.00;;;;;;;11.93;83.74;93426.16;5020379;28;20702;-74
2023/01/20 10:35:00;;;;;;;4.53;3.17;;;;;;;11.95;83.94;93421.41;5028405;28;20184;-74
2023/01/20 10:37:26;;;;;;;7.10;3.37;;;;;;;11.93;83.61;93417.47;5021658;28;20796;-75
2023/01/20 10:40:02;;;;;;;6.37;3.30;;;;;;;11.86;83.61;93422.13;5004571;28;20264;-74
2023/01/20 10:42:28;;;;;;;4.33;3.20;;;;;;;11.79;83.65;93425.00;5012566;28;20169;-75
2023/01/20 10:44:54;;;;;;;6.17;3.67;;;;;;;11.79;83.67;93421.56;5009992;28;20254;-75
2023/01/20 10:47:58;;;;;;;15.73;8.13;;;;;;;11.71;84.23;93412.25;5011489;28;20676;-75
2023/01/20 10:50:41;;;;;;;12.10;7.60;;;;;;;11.62;85.00;93413.78;5011561;28;20192;-75
2023/01/20 10:53:16;;;;;;;13.83;8.00;;;;;;;11.57;85.35;93419.00;5003125;28;20238;-75
2023/01/20 10:55:41;;;;;;;11.97;6.70;;;;;;;11.52;85.80;93409.22;5011742;28;20180;-75
2023/01/20 10:58:39;;;;;;;10.23;5.70;;;;;;;11.51;85.43;93414.72;5011589;28;20282;-75
2023/01/20 11:01:08;;;;;;;12.53;7.27;;;;;;;11.41;84.59;93425.22;5002480;28;20192;-75
2023/01/20 11:03:40;;;;;;;11.00;8.50;;;;;;;11.29;84.78;93425.38;5010134;28;20222;-75
2023/01/20 11:06:09;;;;;;;20.93;15.40;;;;;;;11.24;86.21;93428.72;5009922;28;20231;-75
2023/01/20 11:08:35;;;;;;;22.95;17.20;;;;;;;11.19;87.37;93427.91;5009245;28;20422;-75
2023/01/20 11:11:15;;;;;;;18.57;10.77;;;;;;;11.14;87.92;93419.97;5010715;28;20180;-75
2023/01/20 11:13:40;;;;;;;20.90;10.17;;;;;;;11.14;88.44;93410.22;5009479;28;20176;-75
2023/01/20 11:16:15;;;;;;;22.40;11.90;;;;;;;11.15;89.23;93416.28;5011415;28;20211;-75
2023/01/20 11:18:41;;;;;;;22.67;14.40;;;;;;;11.12;89.84;93416.78;5010878;28;20921;-75
2023/01/20 11:21:10;;;;;;;16.90;9.13;;;;;;;11.04;90.31;93430.41;5011175;28;20200;-75
2023/01/20 11:23:50;;;;;;;16.33;8.60;;;;;;;11.05;90.31;93434.63;5011125;28;20180;-75
2023/01/20 11:26:20;;;;;;;30.73;21.88;;;;;;;11.00;90.66;93421.38;5009862;28;20430;-75
2023/01/20 11:29:10;;;;;;;15.70;10.27;;;;;;;10.93;88.55;93418.97;5009815;28;20640;-75
2023/01/20 11:31:50;;;;;;;18.55;11.15;;;;;;;10.77;87.55;93430.38;5009900;28;20476;-74
2023/01/20 11:34:26;;;;;;;10.73;6.73;;;;;;;10.69;85.12;93421.09;5010236;28;20672;-74
2023/01/20 11:37:03;;;;;;;9.82;5.55;;;;;;;10.59;82.98;93415.72;5010549;28;20922;-74
2023/01/20 11:39:35;;;;;;;8.50;5.03;;;;;;;10.30;81.91;93420.34;5014735;28;20179;-72
2023/01/20 11:42:19;;;;;;;20.57;7.53;;;;;;;10.20;83.40;93446.53;5031602;28;20191;-73
2023/01/20 11:44:49;;;;;;;9.32;5.88;;;;;;;10.09;82.24;93448.19;5030405;28;20495;-74
2023/01/20 11:47:35;;;;;;;9.57;8.63;;;;;;;9.94;81.80;93462.97;5029911;28;20443;-74
2023/01/20 11:50:04;;;;;;;7.18;3.03;;;;;;;9.58;82.33;93451.13;5004765;28;20894;-74
2023/01/20 11:52:34;;;;;;;9.57;4.20;;;;;;;9.42;83.35;93457.97;5011370;28;20945;-74
2023/01/20 11:55:16;;;;;;;13.80;7.65;;;;;;;9.29;85.18;93451.19;5010352;28;20422;-74
2023/01/20 11:57:50;;;;;;;10.25;6.40;;;;;;;9.04;85.32;93453.38;5009863;28;20434;-74
2023/01/20 12:00:18;;;;;;;9.68;5.78;;;;;;;9.01;84.95;93461.72;5010009;28;20502;-74